sensor_id;sensor_type;location;lat;lon;timestamp;P1;durP1;ratioP1;P2;durP2;ratioP2
75165;SDS011;63747;48.042;10.088;2023-02-26T00:00:19;3.13;;;1.93;;
75165;SDS011;63747;48.042;10.088;2023-02-26T00:03:20;2.50;;;1.87;;
75165;SDS011;63747;48.042;10.088;2023-02-26T00:06:21;5.73;;;2.10;;
75165;SDS011;63747;48.042;10.088;2023-02-26T00:09:22;1.50;;;1.30;;
75165;SDS011;63747;48.042;10.088;2023-02-26T00:12:23;2.08;;;1.45;;
75165;SDS011;63747;48.042;10.088;2023-02-26T00:15:24;2.42;;;1.48;;
75165;SDS011;63747;48.042;10.088;2023-02-26T00:18:26;2.10;;;1.33;;
75165;SDS011;63747;48.042;10.088;2023-02-26T00:21:27;2.53;;;1.58;;
75165;SDS011;63747;48.042;10.088;2023-02-26T00:27:29;2.80;;;1.70;;
75165;SDS011;63747;48.042;10.088;2023-02-26T00:30:30;4.63;;;1.97;;
75165;SDS011;63747;48.042;10.088;2023-02-26T00:33:31;6.10;;;2.58;;
75165;SDS011;63747;48.042;10.088;2023-02-26T00:40:01;3.17;;;1.95;;
75165;SDS011;63747;48.042;10.088;2023-02-26T00:43:23;2.25;;;1.55;;
75165;SDS011;63747;48.042;10.088;2023-02-26T00:56:21;4.28;;;1.70;;
75165;SDS011;63747;48.042;10.088;2023-02-26T00:59:22;3.17;;;1.43;;
75165;SDS011;63747;48.042;10.088;2023-02-26T01:02:23;3.63;;;1.60;;
75165;SDS011;63747;48.042;10.088;2023-02-26T01:05:24;3.83;;;1.87;;
75165;SDS011;63747;48.042;10.088;2023-02-26T01:08:33;1.80;;;1.15;;
75165;SDS011;63747;48.042;10.088;2023-02-26T01:11:42;2.30;;;1.48;;
75165;SDS011;63747;48.042;10.088;2023-02-26T01:14:43;2.70;;;1.80;;
75165;SDS011;63747;48.042;10.088;2023-02-26T01:17:47;3.35;;;1.60;;
75165;SDS011;63747;48.042;10.088;2023-02-26T01:21:02;2.80;;;1.40;;
75165;SDS011;63747;48.042;10.088;2023-02-26T01:24:05;2.85;;;1.65;;
75165;SDS011;63747;48.042;10.088;2023-02-26T01:27:09;4.82;;;2.13;;
75165;SDS011;63747;48.042;10.088;2023-02-26T01:30:10;2.93;;;1.77;;
75165;SDS011;63747;48.042;10.088;2023-02-26T01:36:25;1.00;;;0.63;;
75165;SDS011;63747;48.042;10.088;2023-02-26T01:39:33;1.15;;;0.98;;
75165;SDS011;63747;48.042;10.088;2023-02-26T01:42:39;2.38;;;0.80;;
75165;SDS011;63747;48.042;10.088;2023-02-26T01:46:02;4.28;;;1.70;;
75165;SDS011;63747;48.042;10.088;2023-02-26T01:49:14;1.90;;;1.00;;
75165;SDS011;63747;48.042;10.088;2023-02-26T01:55:50;2.70;;;1.38;;
75165;SDS011;63747;48.042;10.088;2023-02-26T01:58:55;3.53;;;1.48;;
75165;SDS011;63747;48.042;10.088;2023-02-26T02:01:56;2.27;;;1.70;;
75165;SDS011;63747;48.042;10.088;2023-02-26T02:05:01;1.58;;;1.15;;
75165;SDS011;63747;48.042;10.088;2023-02-26T02:08:06;2.40;;;1.40;;
75165;SDS011;63747;48.042;10.088;2023-02-26T02:11:09;3.22;;;1.10;;
75165;SDS011;63747;48.042;10.088;2023-02-26T02:14:17;2.22;;;1.25;;
75165;SDS011;63747;48.042;10.088;2023-02-26T02:18:00;1.98;;;1.20;;
75165;SDS011;63747;48.042;10.088;2023-02-26T02:24:25;2.85;;;0.95;;
75165;SDS011;63747;48.042;10.088;2023-02-26T02:34:15;2.72;;;0.98;;
75165;SDS011;63747;48.042;10.088;2023-02-26T02:40:30;1.92;;;1.10;;
75165;SDS011;63747;48.042;10.088;2023-02-26T02:43:33;2.60;;;0.93;;
75165;SDS011;63747;48.042;10.088;2023-02-26T02:46:37;1.85;;;0.90;;
75165;SDS011;63747;48.042;10.088;2023-02-26T02:49:43;2.05;;;0.98;;
75165;SDS011;63747;48.042;10.088;2023-02-26T02:52:49;2.97;;;0.88;;
75165;SDS011;63747;48.042;10.088;2023-02-26T02:59:14;2.35;;;1.15;;
75165;SDS011;63747;48.042;10.088;2023-02-26T03:02:27;2.60;;;0.90;;
75165;SDS011;63747;48.042;10.088;2023-02-26T03:05:33;2.28;;;1.15;;
75165;SDS011;63747;48.042;10.088;2023-02-26T03:08:35;3.60;;;1.30;;
75165;SDS011;63747;48.042;10.088;2023-02-26T03:11:40;4.43;;;1.50;;
75165;SDS011;63747;48.042;10.088;2023-02-26T03:14:41;4.15;;;1.20;;
75165;SDS011;63747;48.042;10.088;2023-02-26T03:24:25;4.97;;;1.25;;
75165;SDS011;63747;48.042;10.088;2023-02-26T03:27:45;1.52;;;0.70;;
75165;SDS011;63747;48.042;10.088;2023-02-26T03:30:54;3.17;;;1.25;;
75165;SDS011;63747;48.042;10.088;2023-02-26T03:37:22;4.70;;;1.52;;
75165;SDS011;63747;48.042;10.088;2023-02-26T03:40:31;2.20;;;0.95;;
75165;SDS011;63747;48.042;10.088;2023-02-26T03:43:56;4.47;;;1.60;;
75165;SDS011;63747;48.042;10.088;2023-02-26T03:47:05;5.57;;;1.80;;
75165;SDS011;63747;48.042;10.088;2023-02-26T03:50:32;4.80;;;1.30;;
75165;SDS011;63747;48.042;10.088;2023-02-26T03:53:43;3.80;;;1.20;;
75165;SDS011;63747;48.042;10.088;2023-02-26T03:56:55;3.80;;;1.10;;
75165;SDS011;63747;48.042;10.088;2023-02-26T03:59:55;3.70;;;1.37;;
75165;SDS011;63747;48.042;10.088;2023-02-26T04:06:26;4.55;;;1.27;;
75165;SDS011;63747;48.042;10.088;2023-02-26T04:09:28;3.97;;;1.40;;
75165;SDS011;63747;48.042;10.088;2023-02-26T04:12:29;1.97;;;0.83;;
75165;SDS011;63747;48.042;10.088;2023-02-26T04:15:30;5.47;;;1.30;;
75165;SDS011;63747;48.042;10.088;2023-02-26T04:18:31;6.00;;;1.27;;
75165;SDS011;63747;48.042;10.088;2023-02-26T04:21:31;5.97;;;1.93;;
75165;SDS011;63747;48.042;10.088;2023-02-26T04:24:32;2.57;;;1.57;;
75165;SDS011;63747;48.042;10.088;2023-02-26T04:27:33;2.90;;;1.33;;
75165;SDS011;63747;48.042;10.088;2023-02-26T04:30:33;3.13;;;1.23;;
75165;SDS011;63747;48.042;10.088;2023-02-26T04:33:34;5.10;;;1.73;;
75165;SDS011;63747;48.042;10.088;2023-02-26T04:36:35;3.27;;;1.53;;
75165;SDS011;63747;48.042;10.088;2023-02-26T04:39:35;2.93;;;1.50;;
75165;SDS011;63747;48.042;10.088;2023-02-26T04:42:36;5.50;;;1.57;;
75165;SDS011;63747;48.042;10.088;2023-02-26T04:45:37;3.30;;;1.70;;
75165;SDS011;63747;48.042;10.088;2023-02-26T04:48:37;2.07;;;1.50;;
75165;SDS011;63747;48.042;10.088;2023-02-26T04:51:38;1.93;;;1.33;;
75165;SDS011;63747;48.042;10.088;2023-02-26T04:54:39;2.87;;;1.33;;
75165;SDS011;63747;48.042;10.088;2023-02-26T04:57:40;2.80;;;1.17;;
75165;SDS011;63747;48.042;10.088;2023-02-26T05:00:40;4.57;;;1.40;;
75165;SDS011;63747;48.042;10.088;2023-02-26T05:03:41;5.60;;;1.43;;
75165;SDS011;63747;48.042;10.088;2023-02-26T05:06:42;3.17;;;1.43;;
75165;SDS011;63747;48.042;10.088;2023-02-26T05:09:43;4.47;;;1.03;;
75165;SDS011;63747;48.042;10.088;2023-02-26T05:12:43;4.07;;;1.20;;
75165;SDS011;63747;48.042;10.088;2023-02-26T05:15:44;3.07;;;1.30;;
75165;SDS011;63747;48.042;10.088;2023-02-26T05:18:45;3.37;;;1.27;;
75165;SDS011;63747;48.042;10.088;2023-02-26T05:21:45;5.17;;;1.47;;
75165;SDS011;63747;48.042;10.088;2023-02-26T05:24:48;5.65;;;1.42;;
75165;SDS011;63747;48.042;10.088;2023-02-26T05:27:49;4.10;;;1.40;;
75165;SDS011;63747;48.042;10.088;2023-02-26T05:30:49;5.03;;;1.43;;
75165;SDS011;63747;48.042;10.088;2023-02-26T05:33:50;6.40;;;1.50;;
75165;SDS011;63747;48.042;10.088;2023-02-26T05:36:51;2.00;;;1.33;;
75165;SDS011;63747;48.042;10.088;2023-02-26T05:39:52;4.30;;;1.40;;
75165;SDS011;63747;48.042;10.088;2023-02-26T05:42:53;3.27;;;1.47;;
75165;SDS011;63747;48.042;10.088;2023-02-26T05:45:53;2.97;;;1.30;;
75165;SDS011;63747;48.042;10.088;2023-02-26T05:48:54;3.37;;;1.03;;
75165;SDS011;63747;48.042;10.088;2023-02-26T05:51:55;3.80;;;1.40;;
75165;SDS011;63747;48.042;10.088;2023-02-26T05:54:56;5.83;;;1.60;;
75165;SDS011;63747;48.042;10.088;2023-02-26T05:57:57;3.20;;;1.10;;
75165;SDS011;63747;48.042;10.088;2023-02-26T06:00:57;3.47;;;1.33;;
75165;SDS011;63747;48.042;10.088;2023-02-26T06:03:59;6.47;;;1.58;;
75165;SDS011;63747;48.042;10.088;2023-02-26T06:07:00;3.13;;;1.20;;
75165;SDS011;63747;48.042;10.088;2023-02-26T06:10:01;2.90;;;1.30;;
75165;SDS011;63747;48.042;10.088;2023-02-26T06:13:03;4.22;;;1.30;;
75165;SDS011;63747;48.042;10.088;2023-02-26T06:16:04;3.17;;;1.03;;
75165;SDS011;63747;48.042;10.088;2023-02-26T06:19:05;4.45;;;1.60;;
75165;SDS011;63747;48.042;10.088;2023-02-26T06:22:05;3.17;;;1.30;;
75165;SDS011;63747;48.042;10.088;2023-02-26T06:25:06;2.67;;;1.13;;
75165;SDS011;63747;48.042;10.088;2023-02-26T06:28:07;3.63;;;0.70;;
75165;SDS011;63747;48.042;10.088;2023-02-26T06:31:08;2.55;;;1.00;;
75165;SDS011;63747;48.042;10.088;2023-02-26T06:34:09;5.30;;;1.17;;
75165;SDS011;63747;48.042;10.088;2023-02-26T06:37:10;5.18;;;1.30;;
75165;SDS011;63747;48.042;10.088;2023-02-26T06:40:11;1.50;;;0.90;;
75165;SDS011;63747;48.042;10.088;2023-02-26T06:43:12;3.42;;;0.95;;
75165;SDS011;63747;48.042;10.088;2023-02-26T06:46:13;7.23;;;2.03;;
75165;SDS011;63747;48.042;10.088;2023-02-26T06:49:13;4.93;;;1.83;;
75165;SDS011;63747;48.042;10.088;2023-02-26T06:52:14;5.77;;;1.83;;
75165;SDS011;63747;48.042;10.088;2023-02-26T06:55:15;1.90;;;1.10;;
75165;SDS011;63747;48.042;10.088;2023-02-26T06:58:16;2.93;;;1.33;;
75165;SDS011;63747;48.042;10.088;2023-02-26T07:01:17;2.97;;;1.27;;
75165;SDS011;63747;48.042;10.088;2023-02-26T07:04:17;4.43;;;1.60;;
75165;SDS011;63747;48.042;10.088;2023-02-26T07:07:18;3.17;;;1.07;;
75165;SDS011;63747;48.042;10.088;2023-02-26T07:10:19;5.53;;;1.40;;
75165;SDS011;63747;48.042;10.088;2023-02-26T07:13:24;4.38;;;1.80;;
75165;SDS011;63747;48.042;10.088;2023-02-26T07:16:24;2.00;;;1.20;;
75165;SDS011;63747;48.042;10.088;2023-02-26T07:19:25;2.57;;;1.03;;
75165;SDS011;63747;48.042;10.088;2023-02-26T07:22:26;2.73;;;1.30;;
75165;SDS011;63747;48.042;10.088;2023-02-26T07:25:27;4.20;;;1.43;;
75165;SDS011;63747;48.042;10.088;2023-02-26T07:28:28;3.97;;;1.43;;
75165;SDS011;63747;48.042;10.088;2023-02-26T07:31:28;4.23;;;1.43;;
75165;SDS011;63747;48.042;10.088;2023-02-26T07:34:29;4.77;;;1.60;;
75165;SDS011;63747;48.042;10.088;2023-02-26T07:37:30;3.63;;;1.73;;
75165;SDS011;63747;48.042;10.088;2023-02-26T07:40:31;2.93;;;1.17;;
75165;SDS011;63747;48.042;10.088;2023-02-26T07:43:32;1.83;;;1.00;;
75165;SDS011;63747;48.042;10.088;2023-02-26T07:46:33;4.07;;;1.20;;
75165;SDS011;63747;48.042;10.088;2023-02-26T07:49:34;5.83;;;1.30;;
75165;SDS011;63747;48.042;10.088;2023-02-26T07:52:35;5.43;;;1.63;;
75165;SDS011;63747;48.042;10.088;2023-02-26T07:55:35;3.00;;;1.20;;
75165;SDS011;63747;48.042;10.088;2023-02-26T07:58:36;2.27;;;1.10;;
75165;SDS011;63747;48.042;10.088;2023-02-26T08:01:37;3.23;;;1.40;;
75165;SDS011;63747;48.042;10.088;2023-02-26T08:04:38;2.20;;;1.30;;
75165;SDS011;63747;48.042;10.088;2023-02-26T08:07:39;3.20;;;1.40;;
75165;SDS011;63747;48.042;10.088;2023-02-26T08:10:40;5.23;;;1.27;;
75165;SDS011;63747;48.042;10.088;2023-02-26T08:13:41;3.70;;;1.20;;
75165;SDS011;63747;48.042;10.088;2023-02-26T08:16:41;4.93;;;1.37;;
75165;SDS011;63747;48.042;10.088;2023-02-26T08:19:42;3.60;;;1.33;;
75165;SDS011;63747;48.042;10.088;2023-02-26T08:22:43;5.03;;;1.40;;
75165;SDS011;63747;48.042;10.088;2023-02-26T08:25:44;3.63;;;1.30;;
75165;SDS011;63747;48.042;10.088;2023-02-26T08:28:45;4.70;;;1.10;;
75165;SDS011;63747;48.042;10.088;2023-02-26T08:31:46;5.13;;;1.17;;
75165;SDS011;63747;48.042;10.088;2023-02-26T08:34:47;4.80;;;1.70;;
75165;SDS011;63747;48.042;10.088;2023-02-26T08:37:48;5.10;;;2.50;;
75165;SDS011;63747;48.042;10.088;2023-02-26T08:40:48;8.70;;;4.80;;
75165;SDS011;63747;48.042;10.088;2023-02-26T08:43:51;10.48;;;4.75;;
75165;SDS011;63747;48.042;10.088;2023-02-26T08:46:52;11.38;;;7.30;;
75165;SDS011;63747;48.042;10.088;2023-02-26T08:49:53;5.43;;;2.67;;
75165;SDS011;63747;48.042;10.088;2023-02-26T08:52:54;8.67;;;3.60;;
75165;SDS011;63747;48.042;10.088;2023-02-26T08:55:55;7.07;;;1.73;;
75165;SDS011;63747;48.042;10.088;2023-02-26T08:58:56;3.10;;;1.57;;
75165;SDS011;63747;48.042;10.088;2023-02-26T09:01:57;2.37;;;1.50;;
75165;SDS011;63747;48.042;10.088;2023-02-26T09:04:57;2.00;;;1.00;;
75165;SDS011;63747;48.042;10.088;2023-02-26T09:07:58;2.80;;;1.30;;
75165;SDS011;63747;48.042;10.088;2023-02-26T09:10:59;36.30;;;1.97;;
75165;SDS011;63747;48.042;10.088;2023-02-26T09:14:01;3.40;;;1.50;;
75165;SDS011;63747;48.042;10.088;2023-02-26T09:17:03;3.33;;;1.17;;
75165;SDS011;63747;48.042;10.088;2023-02-26T09:20:04;3.07;;;1.43;;
75165;SDS011;63747;48.042;10.088;2023-02-26T09:23:05;3.97;;;1.20;;
75165;SDS011;63747;48.042;10.088;2023-02-26T09:26:06;2.50;;;1.30;;
75165;SDS011;63747;48.042;10.088;2023-02-26T09:29:08;2.70;;;1.33;;
75165;SDS011;63747;48.042;10.088;2023-02-26T09:32:10;2.85;;;1.30;;
75165;SDS011;63747;48.042;10.088;2023-02-26T09:35:11;3.63;;;1.27;;
75165;SDS011;63747;48.042;10.088;2023-02-26T09:38:11;3.23;;;1.20;;
75165;SDS011;63747;48.042;10.088;2023-02-26T09:41:15;4.97;;;1.30;;
75165;SDS011;63747;48.042;10.088;2023-02-26T09:47:35;1.80;;;1.08;;
75165;SDS011;63747;48.042;10.088;2023-02-26T09:50:46;1.63;;;0.93;;
75165;SDS011;63747;48.042;10.088;2023-02-26T09:53:50;3.55;;;1.20;;
75165;SDS011;63747;48.042;10.088;2023-02-26T09:59:54;2.33;;;1.02;;
75165;SDS011;63747;48.042;10.088;2023-02-26T10:03:02;1.50;;;1.00;;
75165;SDS011;63747;48.042;10.088;2023-02-26T10:06:24;2.17;;;1.10;;
75165;SDS011;63747;48.042;10.088;2023-02-26T10:12:41;2.15;;;1.25;;
75165;SDS011;63747;48.042;10.088;2023-02-26T10:15:44;1.70;;;1.30;;
75165;SDS011;63747;48.042;10.088;2023-02-26T10:18:48;2.30;;;1.23;;
75165;SDS011;63747;48.042;10.088;2023-02-26T10:21:55;2.53;;;1.13;;
75165;SDS011;63747;48.042;10.088;2023-02-26T10:25:02;2.50;;;1.17;;
75165;SDS011;63747;48.042;10.088;2023-02-26T10:34:37;1.85;;;0.77;;
75165;SDS011;63747;48.042;10.088;2023-02-26T10:40:59;1.40;;;1.00;;
75165;SDS011;63747;48.042;10.088;2023-02-26T10:44:27;2.15;;;1.10;;
75165;SDS011;63747;48.042;10.088;2023-02-26T10:50:33;2.05;;;1.42;;
75165;SDS011;63747;48.042;10.088;2023-02-26T10:53:35;3.58;;;1.30;;
75165;SDS011;63747;48.042;10.088;2023-02-26T10:56:36;3.00;;;1.50;;
75165;SDS011;63747;48.042;10.088;2023-02-26T10:59:37;2.10;;;1.27;;
75165;SDS011;63747;48.042;10.088;2023-02-26T11:02:38;2.57;;;1.73;;
75165;SDS011;63747;48.042;10.088;2023-02-26T11:05:42;3.67;;;1.58;;
75165;SDS011;63747;48.042;10.088;2023-02-26T11:08:43;5.60;;;1.80;;
75165;SDS011;63747;48.042;10.088;2023-02-26T11:11:50;2.63;;;1.77;;
75165;SDS011;63747;48.042;10.088;2023-02-26T11:14:55;3.25;;;1.63;;
75165;SDS011;63747;48.042;10.088;2023-02-26T11:17:56;3.77;;;1.80;;
75165;SDS011;63747;48.042;10.088;2023-02-26T11:20:59;2.47;;;1.60;;
75165;SDS011;63747;48.042;10.088;2023-02-26T11:24:20;2.40;;;1.58;;
75165;SDS011;63747;48.042;10.088;2023-02-26T11:27:35;3.67;;;2.08;;
75165;SDS011;63747;48.042;10.088;2023-02-26T11:30:37;2.28;;;1.88;;
75165;SDS011;63747;48.042;10.088;2023-02-26T11:33:39;3.78;;;2.47;;
75165;SDS011;63747;48.042;10.088;2023-02-26T11:36:44;2.85;;;1.92;;
75165;SDS011;63747;48.042;10.088;2023-02-26T11:39:45;2.07;;;1.60;;
75165;SDS011;63747;48.042;10.088;2023-02-26T11:42:47;2.92;;;2.00;;
75165;SDS011;63747;48.042;10.088;2023-02-26T11:45:58;3.25;;;1.85;;
75165;SDS011;63747;48.042;10.088;2023-02-26T11:49:00;2.60;;;1.90;;
75165;SDS011;63747;48.042;10.088;2023-02-26T11:52:14;1.93;;;1.43;;
75165;SDS011;63747;48.042;10.088;2023-02-26T11:55:17;2.00;;;1.80;;
75165;SDS011;63747;48.042;10.088;2023-02-26T11:58:27;3.35;;;1.73;;
75165;SDS011;63747;48.042;10.088;2023-02-26T12:01:30;2.38;;;1.60;;
75165;SDS011;63747;48.042;10.088;2023-02-26T12:04:31;2.43;;;1.67;;
75165;SDS011;63747;48.042;10.088;2023-02-26T12:07:31;4.47;;;1.90;;
75165;SDS011;63747;48.042;10.088;2023-02-26T12:10:36;3.10;;;1.73;;
75165;SDS011;63747;48.042;10.088;2023-02-26T12:17:23;2.85;;;1.90;;
75165;SDS011;63747;48.042;10.088;2023-02-26T12:27:54;6.00;;;2.53;;
75165;SDS011;63747;48.042;10.088;2023-02-26T12:50:51;1.55;;;1.45;;
75165;SDS011;63747;48.042;10.088;2023-02-26T13:01:07;3.42;;;2.58;;
75165;SDS011;63747;48.042;10.088;2023-02-26T13:07:31;2.75;;;2.25;;
75165;SDS011;63747;48.042;10.088;2023-02-26T13:14:22;3.05;;;1.80;;
75165;SDS011;63747;48.042;10.088;2023-02-26T13:17:46;2.38;;;1.70;;
75165;SDS011;63747;48.042;10.088;2023-02-26T13:21:06;2.42;;;2.15;;
75165;SDS011;63747;48.042;10.088;2023-02-26T13:27:45;2.25;;;1.90;;
75165;SDS011;63747;48.042;10.088;2023-02-26T13:30:48;2.75;;;1.80;;
75165;SDS011;63747;48.042;10.088;2023-02-26T13:33:54;2.65;;;1.50;;
75165;SDS011;63747;48.042;10.088;2023-02-26T13:36:57;2.78;;;1.45;;
75165;SDS011;63747;48.042;10.088;2023-02-26T13:43:28;1.63;;;1.30;;
75165;SDS011;63747;48.042;10.088;2023-02-26T13:46:57;1.90;;;1.70;;
75165;SDS011;63747;48.042;10.088;2023-02-26T13:50:14;1.40;;;1.27;;
75165;SDS011;63747;48.042;10.088;2023-02-26T13:59:37;2.40;;;1.90;;
75165;SDS011;63747;48.042;10.088;2023-02-26T14:02:48;1.30;;;1.10;;
75165;SDS011;63747;48.042;10.088;2023-02-26T14:15:38;1.98;;;1.42;;
75165;SDS011;63747;48.042;10.088;2023-02-26T14:21:48;2.35;;;1.65;;
75165;SDS011;63747;48.042;10.088;2023-02-26T14:31:25;2.10;;;1.63;;
75165;SDS011;63747;48.042;10.088;2023-02-26T14:34:29;1.33;;;1.20;;
75165;SDS011;63747;48.042;10.088;2023-02-26T14:37:35;1.10;;;1.00;;
75165;SDS011;63747;48.042;10.088;2023-02-26T14:40:41;1.40;;;1.20;;
75165;SDS011;63747;48.042;10.088;2023-02-26T14:43:50;1.63;;;1.48;;
75165;SDS011;63747;48.042;10.088;2023-02-26T14:46:58;1.42;;;1.33;;
75165;SDS011;63747;48.042;10.088;2023-02-26T14:49:59;1.52;;;1.27;;
75165;SDS011;63747;48.042;10.088;2023-02-26T14:56:08;2.45;;;1.48;;
75165;SDS011;63747;48.042;10.088;2023-02-26T14:59:27;1.77;;;1.40;;
75165;SDS011;63747;48.042;10.088;2023-02-26T15:02:48;1.73;;;1.33;;
75165;SDS011;63747;48.042;10.088;2023-02-26T15:09:19;2.22;;;1.55;;
75165;SDS011;63747;48.042;10.088;2023-02-26T15:12:36;2.25;;;1.50;;
75165;SDS011;63747;48.042;10.088;2023-02-26T15:25:53;1.48;;;1.27;;
75165;SDS011;63747;48.042;10.088;2023-02-26T15:28:56;1.45;;;1.25;;
75165;SDS011;63747;48.042;10.088;2023-02-26T15:32:00;2.25;;;1.42;;
75165;SDS011;63747;48.042;10.088;2023-02-26T15:35:18;2.08;;;1.20;;
75165;SDS011;63747;48.042;10.088;2023-02-26T15:38:20;2.92;;;1.40;;
75165;SDS011;63747;48.042;10.088;2023-02-26T15:41:22;1.65;;;1.20;;
75165;SDS011;63747;48.042;10.088;2023-02-26T15:44:26;1.90;;;1.30;;
75165;SDS011;63747;48.042;10.088;2023-02-26T15:47:30;2.58;;;1.48;;
75165;SDS011;63747;48.042;10.088;2023-02-26T15:50:33;2.00;;;1.30;;
75165;SDS011;63747;48.042;10.088;2023-02-26T15:53:43;2.45;;;1.40;;
75165;SDS011;63747;48.042;10.088;2023-02-26T15:56:47;1.40;;;1.30;;
75165;SDS011;63747;48.042;10.088;2023-02-26T15:59:50;1.60;;;1.33;;
75165;SDS011;63747;48.042;10.088;2023-02-26T16:02:53;1.67;;;1.27;;
75165;SDS011;63747;48.042;10.088;2023-02-26T16:05:56;2.25;;;1.35;;
75165;SDS011;63747;48.042;10.088;2023-02-26T16:08:58;1.33;;;1.23;;
75165;SDS011;63747;48.042;10.088;2023-02-26T16:15:14;1.65;;;1.02;;
75165;SDS011;63747;48.042;10.088;2023-02-26T16:18:21;1.33;;;1.10;;
75165;SDS011;63747;48.042;10.088;2023-02-26T16:21:28;1.90;;;1.35;;
75165;SDS011;63747;48.042;10.088;2023-02-26T16:24:31;1.52;;;1.23;;
75165;SDS011;63747;48.042;10.088;2023-02-26T16:27:33;1.40;;;1.23;;
75165;SDS011;63747;48.042;10.088;2023-02-26T16:30:36;2.13;;;1.50;;
75165;SDS011;63747;48.042;10.088;2023-02-26T16:33:39;2.80;;;1.17;;
75165;SDS011;63747;48.042;10.088;2023-02-26T16:36:41;1.55;;;1.00;;
75165;SDS011;63747;48.042;10.088;2023-02-26T16:39:42;1.77;;;1.00;;
75165;SDS011;63747;48.042;10.088;2023-02-26T16:45:57;2.10;;;1.55;;
75165;SDS011;63747;48.042;10.088;2023-02-26T16:49:01;1.25;;;1.15;;
75165;SDS011;63747;48.042;10.088;2023-02-26T16:52:06;2.13;;;0.98;;
75165;SDS011;63747;48.042;10.088;2023-02-26T16:55:09;1.10;;;0.80;;
75165;SDS011;63747;48.042;10.088;2023-02-26T16:58:17;2.75;;;0.82;;
75165;SDS011;63747;48.042;10.088;2023-02-26T17:01:20;1.38;;;0.60;;
75165;SDS011;63747;48.042;10.088;2023-02-26T17:04:23;1.15;;;0.70;;
75165;SDS011;63747;48.042;10.088;2023-02-26T17:07:32;0.88;;;0.57;;
75165;SDS011;63747;48.042;10.088;2023-02-26T17:10:39;1.15;;;0.50;;
75165;SDS011;63747;48.042;10.088;2023-02-26T17:13:45;2.05;;;0.93;;
75165;SDS011;63747;48.042;10.088;2023-02-26T17:17:02;1.35;;;0.80;;
75165;SDS011;63747;48.042;10.088;2023-02-26T17:20:03;1.80;;;0.77;;
75165;SDS011;63747;48.042;10.088;2023-02-26T17:23:05;3.20;;;1.05;;
75165;SDS011;63747;48.042;10.088;2023-02-26T17:26:08;1.67;;;1.10;;
75165;SDS011;63747;48.042;10.088;2023-02-26T17:29:18;2.40;;;1.30;;
75165;SDS011;63747;48.042;10.088;2023-02-26T17:32:25;1.67;;;1.08;;
75165;SDS011;63747;48.042;10.088;2023-02-26T17:35:26;1.45;;;1.17;;
75165;SDS011;63747;48.042;10.088;2023-02-26T17:38:28;2.03;;;1.25;;
75165;SDS011;63747;48.042;10.088;2023-02-26T17:41:29;2.53;;;1.65;;
75165;SDS011;63747;48.042;10.088;2023-02-26T17:44:29;2.87;;;2.17;;
75165;SDS011;63747;48.042;10.088;2023-02-26T17:47:30;6.43;;;1.93;;
75165;SDS011;63747;48.042;10.088;2023-02-26T17:50:39;2.57;;;1.90;;
75165;SDS011;63747;48.042;10.088;2023-02-26T17:53:45;3.05;;;2.00;;
75165;SDS011;63747;48.042;10.088;2023-02-26T17:56:46;3.80;;;1.87;;
75165;SDS011;63747;48.042;10.088;2023-02-26T17:59:48;1.70;;;1.35;;
75165;SDS011;63747;48.042;10.088;2023-02-26T18:02:49;3.33;;;2.10;;
75165;SDS011;63747;48.042;10.088;2023-02-26T18:05:51;2.53;;;1.73;;
75165;SDS011;63747;48.042;10.088;2023-02-26T18:08:53;3.55;;;1.67;;
75165;SDS011;63747;48.042;10.088;2023-02-26T18:11:54;3.00;;;1.70;;
75165;SDS011;63747;48.042;10.088;2023-02-26T18:14:55;5.60;;;1.80;;
75165;SDS011;63747;48.042;10.088;2023-02-26T18:17:55;2.60;;;1.70;;
75165;SDS011;63747;48.042;10.088;2023-02-26T18:20:57;3.25;;;1.77;;
75165;SDS011;63747;48.042;10.088;2023-02-26T18:23:59;7.03;;;1.63;;
75165;SDS011;63747;48.042;10.088;2023-02-26T18:27:00;2.27;;;1.50;;
75165;SDS011;63747;48.042;10.088;2023-02-26T18:30:01;1.50;;;1.10;;
75165;SDS011;63747;48.042;10.088;2023-02-26T18:33:03;1.63;;;1.38;;
75165;SDS011;63747;48.042;10.088;2023-02-26T18:36:04;1.50;;;1.20;;
75165;SDS011;63747;48.042;10.088;2023-02-26T18:39:06;1.77;;;1.20;;
75165;SDS011;63747;48.042;10.088;2023-02-26T18:42:16;2.40;;;1.33;;
75165;SDS011;63747;48.042;10.088;2023-02-26T18:45:19;2.10;;;1.27;;
75165;SDS011;63747;48.042;10.088;2023-02-26T18:48:22;1.83;;;1.17;;
75165;SDS011;63747;48.042;10.088;2023-02-26T18:51:22;1.53;;;1.10;;
75165;SDS011;63747;48.042;10.088;2023-02-26T18:54:23;1.60;;;1.00;;
75165;SDS011;63747;48.042;10.088;2023-02-26T18:57:24;2.13;;;1.20;;
75165;SDS011;63747;48.042;10.088;2023-02-26T19:00:24;1.83;;;1.07;;
75165;SDS011;63747;48.042;10.088;2023-02-26T19:03:27;1.27;;;1.10;;
75165;SDS011;63747;48.042;10.088;2023-02-26T19:06:28;1.13;;;0.90;;
75165;SDS011;63747;48.042;10.088;2023-02-26T19:09:29;1.13;;;0.90;;
75165;SDS011;63747;48.042;10.088;2023-02-26T19:12:29;1.63;;;1.13;;
75165;SDS011;63747;48.042;10.088;2023-02-26T19:15:30;1.80;;;1.10;;
75165;SDS011;63747;48.042;10.088;2023-02-26T19:18:31;1.80;;;1.30;;
75165;SDS011;63747;48.042;10.088;2023-02-26T19:21:32;1.27;;;1.00;;
75165;SDS011;63747;48.042;10.088;2023-02-26T19:24:35;2.60;;;1.05;;
75165;SDS011;63747;48.042;10.088;2023-02-26T19:27:36;1.73;;;1.27;;
75165;SDS011;63747;48.042;10.088;2023-02-26T19:30:38;1.70;;;1.10;;
75165;SDS011;63747;48.042;10.088;2023-02-26T19:33:39;2.03;;;1.35;;
75165;SDS011;63747;48.042;10.088;2023-02-26T19:36:40;1.43;;;1.10;;
75165;SDS011;63747;48.042;10.088;2023-02-26T19:39:46;1.92;;;1.33;;
75165;SDS011;63747;48.042;10.088;2023-02-26T19:42:47;3.47;;;1.70;;
75165;SDS011;63747;48.042;10.088;2023-02-26T19:45:48;2.93;;;1.60;;
75165;SDS011;63747;48.042;10.088;2023-02-26T19:48:49;2.57;;;1.50;;
75165;SDS011;63747;48.042;10.088;2023-02-26T19:51:50;2.38;;;1.30;;
75165;SDS011;63747;48.042;10.088;2023-02-26T19:54:51;1.70;;;1.13;;
75165;SDS011;63747;48.042;10.088;2023-02-26T19:57:52;2.70;;;1.60;;
75165;SDS011;63747;48.042;10.088;2023-02-26T20:00:53;1.43;;;1.20;;
75165;SDS011;63747;48.042;10.088;2023-02-26T20:03:53;1.80;;;1.50;;
75165;SDS011;63747;48.042;10.088;2023-02-26T20:06:54;3.43;;;1.67;;
75165;SDS011;63747;48.042;10.088;2023-02-26T20:09:55;2.53;;;1.90;;
75165;SDS011;63747;48.042;10.088;2023-02-26T20:12:56;2.97;;;1.80;;
75165;SDS011;63747;48.042;10.088;2023-02-26T20:15:57;3.40;;;2.30;;
75165;SDS011;63747;48.042;10.088;2023-02-26T20:18:58;2.17;;;1.40;;
75165;SDS011;63747;48.042;10.088;2023-02-26T20:21:59;5.27;;;1.70;;
75165;SDS011;63747;48.042;10.088;2023-02-26T20:24:59;2.10;;;1.87;;
75165;SDS011;63747;48.042;10.088;2023-02-26T20:28:00;2.00;;;1.37;;
75165;SDS011;63747;48.042;10.088;2023-02-26T20:31:01;3.33;;;2.00;;
75165;SDS011;63747;48.042;10.088;2023-02-26T20:34:02;2.50;;;1.73;;
75165;SDS011;63747;48.042;10.088;2023-02-26T20:37:04;3.08;;;1.85;;
75165;SDS011;63747;48.042;10.088;2023-02-26T20:40:05;2.27;;;1.90;;
75165;SDS011;63747;48.042;10.088;2023-02-26T20:46:07;2.67;;;1.70;;
75165;SDS011;63747;48.042;10.088;2023-02-26T20:49:08;2.60;;;1.60;;
75165;SDS011;63747;48.042;10.088;2023-02-26T20:52:12;2.95;;;2.20;;
75165;SDS011;63747;48.042;10.088;2023-02-26T20:55:13;3.20;;;2.07;;
75165;SDS011;63747;48.042;10.088;2023-02-26T20:58:14;1.93;;;1.43;;
75165;SDS011;63747;48.042;10.088;2023-02-26T21:01:14;3.17;;;2.23;;
75165;SDS011;63747;48.042;10.088;2023-02-26T21:04:15;2.77;;;2.10;;
75165;SDS011;63747;48.042;10.088;2023-02-26T21:10:20;2.30;;;1.55;;